Time;durP1;ratioP1;P1;durP2;ratioP2;P2;SDS_P1;SDS_P2;PMS_P1;PMS_P2;Temp;Humidity;BMP_temperature;BMP_pressure;BME280_temperature;BME280_humidity;BME280_pressure;Samples;Min_cycle;Max_cycle;Signal;HPM_P1;HPM_P2
2021/07/27 00:01:16;;;;;;;28.98;20.08;;;18.10;99.90;;;;;;6134579;23;20010;-79
2021/07/27 00:03:42;;;;;;;28.33;20.70;;;18.00;99.90;;;;;;6132476;23;20073;-80
2021/07/27 00:06:09;;;;;;;31.13;21.35;;;17.90;99.90;;;;;;6123105;23;20029;-80
2021/07/27 00:08:36;;;;;;;27.77;20.15;;;17.90;99.90;;;;;;6124685;23;20073;-80
2021/07/27 00:11:04;;;;;;;33.53;21.30;;;17.90;99.90;;;;;;6125352;23;20013;-80
2021/07/27 00:13:30;;;;;;;27.50;21.48;;;17.90;99.90;;;;;;6132686;23;20014;-80
2021/07/27 00:15:55;;;;;;;35.55;22.85;;;17.90;99.90;;;;;;6125679;23;20021;-80
2021/07/27 00:18:21;;;;;;;29.25;22.73;;;17.90;99.90;;;;;;6132967;23;20068;-80
2021/07/27 00:20:48;;;;;;;33.65;22.63;;;17.90;99.90;;;;;;6124808;23;20399;-80
2021/07/27 00:23:14;;;;;;;30.58;23.00;;;17.80;99.90;;;;;;6127917;23;20010;-80
2021/07/27 00:25:42;;;;;;;34.42;24.27;;;17.90;99.90;;;;;;6133104;23;20342;-80
2021/07/27 00:28:09;;;;;;;32.00;23.10;;;17.90;99.90;;;;;;6134307;23;20018;-80
2021/07/27 00:30:35;;;;;;;34.00;25.10;;;17.90;99.90;;;;;;6124880;23;20021;-80
2021/07/27 00:33:01;;;;;;;34.78;25.80;;;17.90;99.90;;;;;;6122709;23;20092;-80
2021/07/27 00:35:28;;;;;;;37.92;26.60;;;17.90;99.90;;;;;;6133329;23;20010;-80
2021/07/27 00:38:10;;;;;;;38.90;26.85;;;18.00;99.90;;;;;;6129536;23;20010;-80
2021/07/27 00:40:40;;;;;;;40.20;28.05;;;18.00;99.90;;;;;;6124747;23;20033;-80
2021/07/27 00:43:09;;;;;;;39.38;28.70;;;18.00;99.90;;;;;;6124498;23;20045;-79
2021/07/27 00:45:36;;;;;;;41.20;29.88;;;18.10;99.90;;;;;;6122787;23;20022;-80
2021/07/27 00:48:02;;;;;;;40.83;29.08;;;18.10;99.90;;;;;;6132218;23;20021;-80
2021/07/27 00:50:29;;;;;;;53.42;29.45;;;18.10;99.90;;;;;;6132957;23;20018;-80
2021/07/27 00:53:00;;;;;;;44.25;31.77;;;18.20;99.90;;;;;;6134289;23;20092;-80
2021/07/27 00:55:27;;;;;;;48.38;32.47;;;18.20;99.90;;;;;;6124848;23;20073;-80
2021/07/27 00:57:53;;;;;;;50.50;32.13;;;18.20;99.90;;;;;;6125136;23;20327;-80
2021/07/27 01:00:20;;;;;;;49.55;33.40;;;18.30;99.90;;;;;;6149626;23;20021;-80
2021/07/27 01:02:46;;;;;;;52.45;34.13;;;18.30;99.90;;;;;;6137166;23;20375;-80
2021/07/27 01:05:12;;;;;;;50.65;33.47;;;18.30;99.90;;;;;;6129697;23;20045;-80
2021/07/27 01:07:40;;;;;;;47.95;33.85;;;18.40;99.90;;;;;;6154296;23;20086;-80
2021/07/27 01:10:07;;;;;;;50.15;33.70;;;18.40;99.90;;;;;;6128812;23;20013;-80
2021/07/27 01:12:33;;;;;;;54.03;35.20;;;18.30;99.90;;;;;;6154866;23;20013;-80
2021/07/27 01:15:00;;;;;;;48.40;34.17;;;18.30;99.90;;;;;;6128768;23;20148;-80
2021/07/27 01:17:25;;;;;;;49.95;33.35;;;18.30;99.90;;;;;;6127597;23;20024;-80
2021/07/27 01:39:01;;;;;;;47.40;31.92;;;18.40;99.90;;;;;;6163283;23;20010;-80
2021/07/27 01:43:54;;;;;;;43.35;30.13;;;18.30;99.90;;;;;;6165789;23;20013;-80
2021/07/27 01:46:24;;;;;;;42.58;29.02;;;18.40;99.90;;;;;;6154151;23;20029;-80
2021/07/27 01:48:50;;;;;;;46.95;29.27;;;18.40;99.90;;;;;;6138529;23;20060;-80
2021/07/27 01:51:17;;;;;;;41.78;28.58;;;18.40;99.90;;;;;;6139800;23;20443;-80
2021/07/27 01:53:51;;;;;;;41.03;28.30;;;18.30;99.90;;;;;;6131448;23;20360;-79
2021/07/27 01:56:18;;;;;;;42.78;27.95;;;18.40;99.90;;;;;;6139035;23;20018;-79
2021/07/27 01:58:46;;;;;;;42.47;28.95;;;18.40;99.90;;;;;;6155793;23;20018;-79
2021/07/27 02:01:12;;;;;;;43.88;27.98;;;18.40;99.90;;;;;;6155899;23;20021;-80
2021/07/27 02:03:38;;;;;;;42.35;29.90;;;18.40;99.90;;;;;;6136932;23;20043;-79
2021/07/27 02:06:04;;;;;;;42.90;28.05;;;18.40;99.90;;;;;;6155429;23;20374;-79
2021/07/27 02:08:30;;;;;;;45.63;29.35;;;18.30;99.90;;;;;;6129319;23;20431;-79
2021/07/27 02:10:59;;;;;;;42.22;28.42;;;18.30;99.90;;;;;;6139536;23;20033;-79
2021/07/27 02:13:30;;;;;;;45.65;29.42;;;18.30;99.90;;;;;;6139048;23;20017;-79
2021/07/27 02:15:57;;;;;;;43.70;28.73;;;18.30;99.90;;;;;;6129539;23;20330;-79
2021/07/27 02:18:23;;;;;;;43.72;29.63;;;18.30;99.90;;;;;;6138451;23;20151;-79
2021/07/27 02:20:48;;;;;;;49.35;30.80;;;18.30;99.90;;;;;;6165376;23;20426;-80
2021/07/27 02:23:14;;;;;;;46.53;29.85;;;18.30;99.90;;;;;;6133314;23;20052;-79
2021/07/27 02:25:41;;;;;;;48.88;29.27;;;18.30;99.90;;;;;;6154265;23;20383;-81
2021/07/27 02:28:11;;;;;;;48.17;29.00;;;18.30;99.90;;;;;;6128289;23;20014;-80
2021/07/27 02:30:43;;;;;;;40.65;26.73;;;18.20;99.90;;;;;;6165242;23;20017;-80
2021/07/27 02:33:09;;;;;;;43.00;25.90;;;18.20;99.90;;;;;;6138552;23;20009;-80
2021/07/27 02:35:36;;;;;;;43.47;26.98;;;18.10;99.90;;;;;;6129193;23;20470;-80
2021/07/27 02:38:02;;;;;;;38.63;25.15;;;18.10;99.90;;;;;;6128213;23;20025;-80
2021/07/27 02:40:28;;;;;;;51.72;28.58;;;18.10;99.90;;;;;;6155399;23;20346;-80
2021/07/27 02:42:53;;;;;;;44.67;26.75;;;18.10;99.90;;;;;;6165102;23;20013;-81
2021/07/27 02:45:26;;;;;;;42.58;26.90;;;18.10;99.90;;;;;;6129493;23;20021;-81
2021/07/27 02:47:52;;;;;;;43.90;27.52;;;18.10;99.90;;;;;;6128562;23;20062;-81
2021/07/27 02:50:18;;;;;;;46.78;26.85;;;18.10;99.90;;;;;;6154910;23;20105;-80
2021/07/27 02:52:44;;;;;;;43.42;26.80;;;18.20;99.90;;;;;;6154063;23;20013;-81
2021/07/27 02:55:11;;;;;;;36.47;25.13;;;18.20;99.90;;;;;;6138629;23;20014;-81
2021/07/27 02:57:37;;;;;;;36.30;24.80;;;18.20;99.90;;;;;;6165036;23;20509;-81
2021/07/27 03:00:10;;;;;;;45.03;27.13;;;18.20;99.90;;;;;;6128266;23;20026;-81
2021/07/27 03:02:41;;;;;;;40.95;25.20;;;18.20;99.90;;;;;;6128086;23;20049;-81
2021/07/27 03:05:08;;;;;;;44.20;26.90;;;18.30;99.90;;;;;;6155437;23;20018;-81
2021/07/27 03:10:17;;;;;;;39.92;24.48;;;18.30;99.90;;;;;;6155435;23;20292;-81
2021/07/27 03:12:49;;;;;;;45.07;25.03;;;18.30;99.90;;;;;;6163237;23;20101;-80
2021/07/27 03:15:17;;;;;;;39.33;25.17;;;18.20;99.90;;;;;;6138586;23;20044;-81
2021/07/27 03:17:43;;;;;;;44.50;26.00;;;18.30;99.90;;;;;;6162517;23;20021;-81
2021/07/27 03:20:11;;;;;;;42.88;24.58;;;18.20;99.90;;;;;;6154605;23;20024;-81
2021/07/27 03:22:37;;;;;;;40.17;24.08;;;18.20;99.90;;;;;;6163231;23;20064;-81
2021/07/27 03:25:06;;;;;;;35.75;23.30;;;18.20;99.90;;;;;;6128615;23;20017;-80
2021/07/27 03:27:32;;;;;;;34.35;22.63;;;18.10;99.90;;;;;;6127988;23;20017;-81
2021/07/27 03:29:57;;;;;;;40.25;21.33;;;18.10;99.90;;;;;;6164724;23;20019;-81
2021/07/27 03:32:23;;;;;;;33.20;20.85;;;18.10;99.90;;;;;;6138191;23;20489;-81
2021/07/27 03:34:49;;;;;;;29.52;20.73;;;18.10;99.90;;;;;;6163991;23;20109;-81
2021/07/27 03:37:15;;;;;;;34.88;20.67;;;18.00;99.90;;;;;;6163477;23;20064;-81
2021/07/27 03:39:41;;;;;;;37.92;22.23;;;18.00;99.90;;;;;;6104113;23;20084;-81
2021/07/27 03:42:08;;;;;;;34.83;21.38;;;18.00;99.90;;;;;;6164797;23;20391;-81
2021/07/27 03:44:34;;;;;;;33.28;22.20;;;18.00;99.90;;;;;;6154667;23;20088;-81
2021/07/27 03:47:00;;;;;;;33.97;22.30;;;18.00;99.90;;;;;;6154023;23;20091;-81
2021/07/27 03:49:29;;;;;;;35.30;21.65;;;17.90;99.90;;;;;;6164277;23;20470;-81
2021/07/27 03:51:59;;;;;;;37.13;22.70;;;17.90;99.90;;;;;;6103004;23;20017;-81
2021/07/27 03:54:27;;;;;;;36.00;23.48;;;17.90;99.90;;;;;;6127708;23;20029;-81
2021/07/27 03:56:53;;;;;;;36.30;23.35;;;17.90;99.90;;;;;;6162059;23;20014;-81
2021/07/27 03:59:19;;;;;;;40.83;24.20;;;17.90;99.90;;;;;;6133970;23;20415;-81
2021/07/27 04:01:45;;;;;;;39.83;24.02;;;17.80;99.90;;;;;;6154162;23;20705;-81
2021/07/27 04:04:10;;;;;;;38.53;23.50;;;17.80;99.90;;;;;;6128122;23;20014;-81
2021/07/27 04:06:36;;;;;;;34.83;23.85;;;17.70;99.90;;;;;;6164285;23;20009;-81
2021/07/27 04:09:02;;;;;;;36.47;23.02;;;17.70;99.90;;;;;;6155677;23;20311;-81
2021/07/27 04:11:28;;;;;;;37.95;23.13;;;17.70;99.90;;;;;;6138058;23;20332;-81
2021/07/27 04:13:54;;;;;;;37.70;23.27;;;17.70;99.90;;;;;;6164455;23;20014;-80
2021/07/27 04:16:20;;;;;;;38.20;23.38;;;17.60;99.90;;;;;;6136683;23;20088;-81
2021/07/27 04:18:47;;;;;;;35.55;23.40;;;17.60;99.90;;;;;;6163695;23;20430;-81
2021/07/27 04:21:13;;;;;;;36.17;23.13;;;17.60;99.90;;;;;;6128148;23;20009;-77
2021/07/27 04:23:39;;;;;;;25.35;16.70;;;17.50;99.90;;;;;;6125579;23;20438;-78
2021/07/27 04:26:04;;;;;;;29.05;17.98;;;17.80;99.90;;;;;;6150719;23;20018;-79
2021/07/27 04:28:34;;;;;;;31.60;18.60;;;18.00;99.90;;;;;;6152734;23;20016;-79
2021/07/27 04:31:00;;;;;;;32.63;20.77;;;18.20;99.90;;;;;;6161896;23;20322;-78
2021/07/27 04:33:26;;;;;;;28.05;18.92;;;18.20;99.90;;;;;;6152003;23;20097;-78
2021/07/27 04:35:53;;;;;;;31.58;19.27;;;18.30;99.90;;;;;;6153701;23;20096;-78
2021/07/27 04:38:22;;;;;;;29.35;19.38;;;18.40;99.90;;;;;;6153680;23;20063;-77
2021/07/27 04:40:52;;;;;;;32.13;19.55;;;18.30;99.90;;;;;;6163546;23;20064;-76
2021/07/27 04:43:18;;;;;;;28.50;17.77;;;18.30;99.90;;;;;;6161165;23;20020;-77
2021/07/27 04:45:43;;;;;;;29.13;18.05;;;18.40;99.90;;;;;;6137630;23;20009;-76
2021/07/27 04:48:09;;;;;;;32.75;18.33;;;18.50;99.90;;;;;;6136144;23;20024;-78
2021/07/27 04:50:36;;;;;;;26.73;18.38;;;18.60;99.90;;;;;;6153718;23;20088;-78
2021/07/27 04:53:09;;;;;;;36.95;19.80;;;18.60;99.90;;;;;;6133597;23;20013;-77
2021/07/27 04:55:35;;;;;;;28.40;18.52;;;18.60;99.90;;;;;;6126287;23;20021;-80
2021/07/27 04:58:04;;;;;;;31.48;18.02;;;18.50;99.90;;;;;;6163956;23;20064;-80
2021/07/27 05:00:30;;;;;;;30.65;19.70;;;18.50;99.90;;;;;;6126839;23;20017;-79
2021/07/27 05:02:57;;;;;;;30.55;16.83;;;18.60;99.90;;;;;;6101745;23;20347;-78
2021/07/27 05:05:24;;;;;;;27.90;15.82;;;18.60;99.90;;;;;;6154698;23;20021;-79
2021/07/27 05:07:49;;;;;;;24.52;16.42;;;18.70;99.90;;;;;;6152862;23;20051;-79
2021/07/27 05:10:17;;;;;;;30.13;19.05;;;18.80;99.90;;;;;;6163294;23;20021;-78
2021/07/27 05:12:43;;;;;;;25.40;14.68;;;18.90;99.90;;;;;;6150608;23;20141;-78
2021/07/27 05:15:10;;;;;;;29.23;17.42;;;19.00;99.90;;;;;;6155460;23;20034;-78
2021/07/27 05:17:37;;;;;;;33.38;17.90;;;19.10;99.90;;;;;;6154047;23;20096;-77
2021/07/27 05:20:05;;;;;;;32.05;18.02;;;19.10;99.90;;;;;;6165968;23;20081;-77
2021/07/27 05:22:31;;;;;;;28.67;18.65;;;19.10;99.90;;;;;;6129516;23;20107;-77
2021/07/27 05:24:56;;;;;;;24.75;16.52;;;19.10;99.90;;;;;;6165995;23;20088;-77
2021/07/27 05:27:24;;;;;;;26.80;17.95;;;19.10;99.90;;;;;;6156201;23;20060;-77
2021/07/27 05:29:52;;;;;;;28.50;18.67;;;19.00;99.90;;;;;;6165244;23;20013;-76
2021/07/27 05:32:18;;;;;;;28.45;17.63;;;18.90;99.90;;;;;;6153414;23;20401;-76
2021/07/27 05:34:44;;;;;;;30.92;19.20;;;18.90;99.90;;;;;;6129199;23;20045;-75
2021/07/27 05:37:10;;;;;;;27.70;19.65;;;18.80;99.90;;;;;;6129645;23;20169;-74
2021/07/27 05:39:36;;;;;;;26.70;17.48;;;18.80;99.90;;;;;;6157239;23;20097;-75
2021/07/27 05:42:02;;;;;;;29.27;17.45;;;18.80;99.90;;;;;;6156221;23;20430;-75
2021/07/27 05:44:28;;;;;;;24.15;15.77;;;18.70;99.90;;;;;;6164424;23;20025;-75
2021/07/27 05:46:55;;;;;;;24.85;16.00;;;18.70;99.90;;;;;;6165543;23;20009;-77
2021/07/27 05:49:22;;;;;;;25.25;15.30;;;18.80;99.90;;;;;;6163786;23;20013;-78
2021/07/27 05:51:49;;;;;;;22.52;15.68;;;18.80;99.90;;;;;;6163249;23;20029;-78
2021/07/27 05:54:19;;;;;;;28.13;16.90;;;18.80;99.90;;;;;;6156736;23;20013;-76
2021/07/27 05:56:47;;;;;;;28.05;16.05;;;18.80;99.90;;;;;;6127035;23;20084;-76
2021/07/27 05:59:14;;;;;;;25.80;16.95;;;18.80;99.90;;;;;;6154309;23;20013;-75
2021/07/27 06:01:40;;;;;;;24.00;15.88;;;18.80;99.90;;;;;;6163971;23;20417;-75
2021/07/27 06:04:07;;;;;;;25.20;16.95;;;18.80;99.90;;;;;;6134225;23;20032;-75
2021/07/27 06:06:33;;;;;;;24.88;17.15;;;18.70;99.90;;;;;;6128226;23;20018;-76
2021/07/27 06:09:05;;;;;;;27.90;16.52;;;18.70;99.90;;;;;;6157849;23;20009;-77
2021/07/27 06:11:32;;;;;;;24.10;16.05;;;18.70;99.90;;;;;;6138268;23;20013;-76
2021/07/27 06:13:58;;;;;;;24.80;15.93;;;18.80;99.90;;;;;;6163798;23;20053;-77
2021/07/27 06:16:24;;;;;;;26.88;16.38;;;18.90;99.90;;;;;;6163696;23;20089;-77
2021/07/27 06:18:49;;;;;;;23.83;16.73;;;19.00;99.90;;;;;;6137712;23;20045;-77
2021/07/27 06:21:15;;;;;;;26.30;15.65;;;19.00;99.90;;;;;;6154935;23;20010;-78
2021/07/27 06:23:41;;;;;;;26.20;16.70;;;18.90;99.90;;;;;;6133322;23;20024;-77
2021/07/27 06:26:07;;;;;;;29.80;17.80;;;19.10;99.90;;;;;;6137801;23;20043;-77
2021/07/27 06:28:34;;;;;;;24.52;17.05;;;19.10;99.90;;;;;;6164227;23;20022;-77
2021/07/27 06:31:02;;;;;;;22.77;16.35;;;19.00;99.90;;;;;;6163257;23;20016;-77
2021/07/27 06:33:28;;;;;;;25.65;16.58;;;19.10;99.90;;;;;;6163022;23;20031;-77
2021/07/27 06:35:57;;;;;;;26.15;17.05;;;19.10;99.90;;;;;;6137817;23;20010;-76
2021/07/27 06:38:24;;;;;;;26.90;16.83;;;19.20;99.90;;;;;;6127419;23;20072;-80
2021/07/27 06:40:51;;;;;;;24.38;17.80;;;19.30;99.90;;;;;;6163926;23;20009;-79
2021/07/27 06:43:17;;;;;;;24.90;18.02;;;19.30;99.90;;;;;;6127795;23;20048;-76
2021/07/27 06:45:52;;;;;;;23.65;16.98;;;19.40;99.90;;;;;;6103380;23;20017;-80
2021/07/27 06:48:22;;;;;;;24.20;17.90;;;19.40;99.90;;;;;;6163370;23;20009;-80
2021/07/27 06:50:48;;;;;;;21.38;15.52;;;19.50;99.90;;;;;;6164583;23;20021;-82
2021/07/27 06:53:14;;;;;;;23.60;16.83;;;19.60;99.90;;;;;;6128241;23;20048;-80
2021/07/27 06:55:40;;;;;;;24.52;17.00;;;19.70;99.90;;;;;;6128587;23;20097;-83
2021/07/27 06:58:06;;;;;;;28.48;19.20;;;19.90;99.90;;;;;;6138725;23;20351;-82
2021/07/27 07:00:33;;;;;;;28.05;21.27;;;20.10;99.90;;;;;;6132205;23;20021;-81
2021/07/27 07:03:00;;;;;;;33.90;21.25;;;20.10;99.90;;;;;;6169473;23;20123;-83
2021/07/27 07:05:26;;;;;;;36.50;21.98;;;20.10;99.90;;;;;;6158790;23;20024;-82
2021/07/27 07:07:52;;;;;;;32.92;22.80;;;20.20;99.90;;;;;;6142169;23;20010;-82
2021/07/27 07:10:19;;;;;;;37.83;23.63;;;20.30;99.90;;;;;;6143276;23;20088;-81
2021/07/27 07:12:45;;;;;;;36.45;21.58;;;20.40;99.90;;;;;;6169818;23;20355;-81
2021/07/27 07:15:11;;;;;;;34.97;21.58;;;20.40;99.90;;;;;;6143240;23;20063;-79
2021/07/27 07:17:37;;;;;;;43.53;25.23;;;20.60;99.90;;;;;;6168001;23;20092;-79
2021/07/27 07:20:03;;;;;;;29.98;21.45;;;20.70;99.90;;;;;;6150232;23;20084;-79
2021/07/27 07:22:30;;;;;;;39.22;25.08;;;20.80;99.90;;;;;;6137377;23;20045;-79
2021/07/27 07:28:39;;;;;;;45.55;27.25;;;20.80;99.90;;;;;;6172517;23;20017;-82
2021/07/27 07:31:16;;;;;;;39.45;27.42;;;20.90;99.90;;;;;;6180466;23;20017;-81
2021/07/27 07:33:43;;;;;;;45.83;28.77;;;20.90;99.90;;;;;;6157888;23;20033;-80
2021/07/27 07:36:14;;;;;;;53.05;32.22;;;20.90;99.90;;;;;;6163682;23;20018;-79
2021/07/27 07:38:40;;;;;;;48.72;31.55;;;20.80;99.90;;;;;;6155263;23;20307;-84
2021/07/27 07:41:10;;;;;;;54.83;33.55;;;20.70;99.90;;;;;;6164824;23;20107;-78
2021/07/27 07:43:38;;;;;;;57.22;32.75;;;20.60;99.90;;;;;;6128575;23;20088;-80
2021/07/27 07:46:03;;;;;;;48.40;32.90;;;20.60;99.90;;;;;;6155133;23;20294;-79
2021/07/27 07:48:29;;;;;;;47.75;32.33;;;20.60;99.90;;;;;;6127417;23;20045;-80
2021/07/27 07:50:55;;;;;;;48.90;32.05;;;20.80;99.90;;;;;;6127810;23;20507;-81
2021/07/27 07:53:21;;;;;;;51.88;31.83;;;20.90;99.90;;;;;;6135561;23;20017;-80
2021/07/27 07:55:48;;;;;;;47.83;31.33;;;20.90;99.90;;;;;;6164548;23;20028;-78
2021/07/27 07:58:13;;;;;;;49.97;30.88;;;21.00;99.90;;;;;;6163944;23;20024;-79
2021/07/27 08:00:39;;;;;;;45.33;30.08;;;21.00;99.90;;;;;;6128358;23;20009;-82
2021/07/27 08:03:05;;;;;;;51.35;32.55;;;21.00;99.90;;;;;;6163859;23;20408;-81
2021/07/27 08:05:31;;;;;;;53.80;32.08;;;21.10;99.90;;;;;;6129156;23;20362;-81
2021/07/27 08:07:57;;;;;;;54.83;31.70;;;21.20;99.90;;;;;;6137184;23;20414;-80
2021/07/27 08:10:22;;;;;;;40.33;26.70;;;21.40;99.90;;;;;;6127806;23;20064;-79
2021/07/27 08:12:48;;;;;;;52.70;32.65;;;21.50;99.90;;;;;;6154431;23;20009;-80
2021/07/27 08:15:18;;;;;;;44.40;29.98;;;21.60;99.90;;;;;;6137983;23;20013;-80
2021/07/27 08:17:44;;;;;;;50.47;32.25;;;21.70;99.90;;;;;;6164362;23;20017;-81
2021/07/27 08:20:11;;;;;;;53.28;35.28;;;21.90;99.90;;;;;;6128551;23;20017;-79
2021/07/27 08:22:38;;;;;;;49.65;32.28;;;21.90;99.90;;;;;;6154499;23;20037;-78
2021/07/27 08:25:14;;;;;;;50.78;33.38;;;21.90;99.90;;;;;;6153422;23;20028;-78
2021/07/27 08:27:41;;;;;;;48.42;33.42;;;22.00;99.90;;;;;;6140967;23;20041;-79
2021/07/27 08:30:07;;;;;;;51.45;32.33;;;22.10;99.90;;;;;;6154137;23;20029;-79
2021/07/27 08:32:33;;;;;;;44.15;30.20;;;22.00;99.90;;;;;;6155221;23;20052;-81
2021/07/27 08:34:59;;;;;;;47.22;31.80;;;22.00;99.90;;;;;;6164907;23;20276;-82
2021/07/27 08:37:24;;;;;;;54.60;35.15;;;22.00;99.90;;;;;;6133402;23;20022;-79
2021/07/27 08:39:50;;;;;;;52.25;35.28;;;21.90;99.90;;;;;;6157603;23;20013;-79
2021/07/27 08:42:18;;;;;;;49.65;29.65;;;22.00;99.90;;;;;;6129018;23;20092;-77
2021/07/27 08:44:45;;;;;;;53.42;33.90;;;22.30;99.90;;;;;;6165340;23;20018;-81
2021/07/27 08:47:11;;;;;;;46.75;32.67;;;22.50;99.90;;;;;;6114255;23;20405;-80
2021/07/27 08:49:38;;;;;;;51.13;31.95;;;22.60;99.90;;;;;;6138813;23;20044;-78
2021/07/27 08:52:04;;;;;;;42.67;30.30;;;22.60;99.90;;;;;;6128399;23;20064;-80
2021/07/27 08:54:30;;;;;;;44.85;31.40;;;22.60;99.90;;;;;;6154837;23;20020;-77
2021/07/27 08:56:57;;;;;;;45.33;31.33;;;22.70;99.90;;;;;;6163564;23;20403;-79
2021/07/27 08:59:23;;;;;;;47.05;32.20;;;22.80;99.90;;;;;;6134939;23;20017;-78
2021/07/27 09:01:52;;;;;;;50.00;32.80;;;23.00;99.90;;;;;;6163581;23;20010;-79
2021/07/27 09:04:27;;;;;;;46.88;33.22;;;23.00;99.90;;;;;;6154811;23;20025;-82
2021/07/27 09:07:04;;;;;;;47.38;31.67;;;23.10;99.90;;;;;;6128123;23;20334;-81
2021/07/27 09:09:33;;;;;;;45.53;30.38;;;23.20;99.90;;;;;;6127405;23;20140;-81
2021/07/27 09:12:00;;;;;;;45.78;31.15;;;23.00;99.90;;;;;;6152012;23;20024;-82
2021/07/27 09:14:28;;;;;;;43.92;30.65;;;22.90;99.90;;;;;;6127613;23;20021;-80
2021/07/27 09:16:56;;;;;;;41.85;28.88;;;23.00;99.90;;;;;;6164218;23;20497;-80
2021/07/27 09:19:23;;;;;;;42.05;29.13;;;23.00;99.90;;;;;;6157414;23;20084;-81
2021/07/27 09:22:01;;;;;;;44.45;29.50;;;23.10;99.90;;;;;;6164152;23;20013;-80
2021/07/27 09:24:29;;;;;;;40.70;28.48;;;23.00;99.90;;;;;;6155442;23;20013;-80
2021/07/27 09:26:56;;;;;;;41.88;29.35;;;22.80;99.90;;;;;;6130866;23;20025;-81
2021/07/27 09:29:28;;;;;;;40.30;29.88;;;22.70;99.90;;;;;;6164169;23;20009;-81
2021/07/27 09:31:58;;;;;;;42.75;29.60;;;22.40;99.90;;;;;;6163581;23;20326;-82
2021/07/27 09:34:25;;;;;;;45.92;30.60;;;22.30;99.90;;;;;;6154185;23;20040;-82
2021/07/27 09:37:07;;;;;;;40.50;29.65;;;22.30;99.90;;;;;;6164662;23;20037;-82
2021/07/27 09:39:35;;;;;;;38.50;27.98;;;22.40;99.90;;;;;;6132523;23;20016;-82
2021/07/27 09:42:08;;;;;;;39.97;28.38;;;22.60;99.90;;;;;;6163025;23;20088;-82
2021/07/27 09:44:35;;;;;;;40.28;27.20;;;22.80;99.90;;;;;;6152780;23;20021;-82
2021/07/27 09:47:02;;;;;;;36.25;26.00;;;22.80;99.90;;;;;;6163962;23;20043;-83
2021/07/27 09:49:28;;;;;;;36.03;26.23;;;23.10;99.90;;;;;;6128828;23;20021;-82
2021/07/27 09:51:58;;;;;;;43.03;26.85;;;23.40;99.90;;;;;;6127892;23;20476;-81
2021/07/27 09:54:25;;;;;;;34.42;25.50;;;23.50;99.90;;;;;;6158221;23;20021;-83
2021/07/27 09:56:52;;;;;;;31.33;24.17;;;23.40;99.90;;;;;;6151717;23;20461;-82
2021/07/27 09:59:21;;;;;;;35.47;23.83;;;23.60;99.90;;;;;;6151884;23;20035;-82
2021/07/27 10:02:01;;;;;;;32.30;24.25;;;24.00;99.90;;;;;;6164423;23;20027;-82
2021/07/27 10:04:43;;;;;;;35.28;24.95;;;24.30;99.90;;;;;;6160403;23;20320;-82
2021/07/27 10:07:09;;;;;;;33.47;24.55;;;24.40;99.90;;;;;;6165949;23;20020;-82
2021/07/27 10:09:36;;;;;;;32.03;24.00;;;24.40;99.90;;;;;;6160105;23;20326;-82
2021/07/27 10:12:08;;;;;;;34.97;24.75;;;24.40;99.90;;;;;;6137022;23;20439;-82
2021/07/27 10:14:45;;;;;;;35.13;25.67;;;24.20;99.90;;;;;;6164420;23;20088;-81
2021/07/27 10:17:12;;;;;;;34.10;24.65;;;24.20;99.90;;;;;;6138304;23;20014;-82
2021/07/27 10:19:40;;;;;;;27.98;22.88;;;24.00;99.90;;;;;;6104362;23;20021;-82
2021/07/27 10:22:08;;;;;;;32.75;23.50;;;24.10;99.90;;;;;;6104096;23;20017;-82
2021/07/27 10:24:42;;;;;;;28.65;23.40;;;24.00;99.90;;;;;;6134092;23;20040;-82
2021/07/27 10:27:18;;;;;;;32.17;24.67;;;24.00;99.90;;;;;;6105288;23;20093;-82
2021/07/27 10:29:44;;;;;;;33.03;24.55;;;24.00;99.90;;;;;;6129291;23;20804;-81
2021/07/27 10:32:24;;;;;;;35.60;26.45;;;24.00;99.90;;;;;;6164547;23;20096;-82
2021/07/27 10:34:52;;;;;;;40.20;25.13;;;23.90;99.90;;;;;;6164928;23;20384;-79
2021/07/27 10:37:18;;;;;;;33.03;25.27;;;23.80;99.90;;;;;;6130348;23;20029;-81
2021/07/27 10:40:02;;;;;;;32.95;25.80;;;24.00;99.90;;;;;;6167567;23;20105;-80
2021/07/27 10:42:39;;;;;;;34.58;27.05;;;24.20;99.90;;;;;;6131508;23;20092;-82
2021/07/27 10:45:26;;;;;;;33.63;27.20;;;24.50;99.90;;;;;;6157931;23;20017;-81
2021/07/27 10:47:54;;;;;;;33.10;24.95;;;24.70;99.90;;;;;;6142188;23;20037;-80
2021/07/27 10:50:31;;;;;;;31.83;24.45;;;24.70;99.90;;;;;;6147280;23;20010;-80
2021/07/27 10:53:18;;;;;;;30.83;23.38;;;24.70;99.90;;;;;;6171653;23;20018;-81
2021/07/27 10:55:49;;;;;;;29.73;23.02;;;24.60;99.90;;;;;;6128201;23;20044;-81
2021/07/27 10:58:17;;;;;;;27.60;20.38;;;24.60;99.90;;;;;;6165155;23;20076;-81
2021/07/27 11:00:43;;;;;;;27.98;23.13;;;24.60;99.90;;;;;;6156405;23;20017;-82
2021/07/27 11:03:10;;;;;;;26.35;21.83;;;24.70;99.90;;;;;;6128381;23;20022;-81
2021/07/27 11:05:37;;;;;;;28.35;22.17;;;24.80;99.90;;;;;;6155085;23;20096;-81
2021/07/27 11:08:03;;;;;;;30.40;22.00;;;25.10;99.90;;;;;;6128506;23;20049;-80
2021/07/27 11:10:33;;;;;;;25.77;20.33;;;24.90;99.90;;;;;;6156832;23;20021;-80
2021/07/27 11:12:59;;;;;;;22.13;17.92;;;24.90;99.90;;;;;;6128511;23;20088;-80
2021/07/27 11:15:29;;;;;;;23.35;18.88;;;24.80;99.90;;;;;;6128616;23;20020;-81
2021/07/27 11:17:58;;;;;;;20.90;16.85;;;25.00;99.90;;;;;;6128028;23;20027;-81
2021/07/27 11:20:26;;;;;;;20.45;15.95;;;25.20;99.90;;;;;;6138975;23;20431;-81
2021/07/27 11:22:54;;;;;;;20.50;16.55;;;25.00;99.90;;;;;;6164068;23;20014;-79
2021/07/27 11:25:21;;;;;;;18.02;13.70;;;24.80;99.90;;;;;;6128462;23;20044;-81
2021/07/27 11:27:48;;;;;;;15.93;13.15;;;25.10;99.90;;;;;;6128431;23;20018;-82
2021/07/27 11:30:15;;;;;;;16.80;14.60;;;25.50;99.90;;;;;;6128916;23;20056;-82
2021/07/27 11:32:43;;;;;;;16.80;13.27;;;25.60;99.90;;;;;;6154934;23;20045;-82
2021/07/27 11:35:11;;;;;;;20.13;13.88;;;25.50;99.90;;;;;;6155094;23;20045;-78
2021/07/27 11:37:37;;;;;;;15.60;13.27;;;25.80;99.90;;;;;;6164135;23;20017;-82
2021/07/27 11:40:04;;;;;;;15.07;12.63;;;25.50;99.90;;;;;;6132561;23;20500;-83
2021/07/27 11:42:31;;;;;;;18.33;12.15;;;25.50;99.90;;;;;;6128768;23;20085;-81
2021/07/27 11:45:04;;;;;;;19.08;13.07;;;25.50;99.90;;;;;;6104829;23;20072;-83
2021/07/27 11:47:41;;;;;;;16.60;13.55;;;25.70;99.90;;;;;;6116182;23;20064;-82
2021/07/27 11:50:25;;;;;;;16.38;13.30;;;25.60;99.90;;;;;;6155540;23;20385;-82
2021/07/27 11:53:02;;;;;;;15.38;12.00;;;25.40;99.90;;;;;;6129093;23;20018;-81
2021/07/27 11:55:35;;;;;;;16.27;12.20;;;25.80;99.90;;;;;;6129203;23;20021;-82
2021/07/27 11:58:01;;;;;;;14.13;11.40;;;25.50;99.90;;;;;;6155373;23;20012;-82
2021/07/27 12:00:30;;;;;;;21.35;12.10;;;25.50;99.90;;;;;;6099330;23;20021;-83
2021/07/27 12:02:56;;;;;;;19.52;13.27;;;25.50;99.90;;;;;;6135566;23;20010;-82
2021/07/27 12:05:22;;;;;;;15.98;12.85;;;25.50;99.90;;;;;;6098770;23;20358;-81
2021/07/27 12:07:48;;;;;;;13.27;11.60;;;25.60;99.90;;;;;;6123076;23;20021;-82
2021/07/27 12:10:15;;;;;;;17.55;12.07;;;25.90;99.90;;;;;;6098537;23;20017;-81
2021/07/27 12:12:42;;;;;;;16.50;12.57;;;26.20;99.90;;;;;;6125345;23;20021;-81
2021/07/27 12:15:12;;;;;;;13.05;11.40;;;26.20;99.90;;;;;;6123150;23;20129;-79
2021/07/27 12:17:42;;;;;;;15.07;11.50;;;26.50;99.90;;;;;;6133380;23;20021;-82
2021/07/27 12:20:13;;;;;;;12.98;11.57;;;26.50;99.90;;;;;;6122640;23;20024;-81
2021/07/27 12:22:42;;;;;;;12.52;11.02;;;26.70;99.90;;;;;;6134223;23;20351;-80
2021/07/27 12:25:09;;;;;;;13.90;10.70;;;26.90;99.90;;;;;;6098284;23;20581;-82
2021/07/27 12:27:36;;;;;;;15.40;11.38;;;27.10;99.90;;;;;;6133871;23;20065;-81
2021/07/27 12:30:04;;;;;;;14.57;12.13;;;27.50;99.90;;;;;;6132636;23;20399;-84
2021/07/27 12:32:29;;;;;;;18.25;12.35;;;27.30;99.90;;;;;;6132150;23;20092;-82
2021/07/27 12:34:55;;;;;;;14.63;12.43;;;26.80;99.90;;;;;;6122745;23;20018;-80
2021/07/27 12:37:21;;;;;;;16.13;12.32;;;26.40;99.90;;;;;;6122805;23;20450;-83
2021/07/27 12:39:47;;;;;;;16.02;12.20;;;26.50;99.90;;;;;;6129938;23;20081;-78
2021/07/27 12:42:13;;;;;;;18.50;11.55;;;26.90;99.90;;;;;;6122080;23;20017;-80
2021/07/27 12:44:40;;;;;;;18.65;12.20;;;27.20;99.90;;;;;;6133941;23;20442;-78
2021/07/27 12:47:06;;;;;;;17.77;12.73;;;27.20;99.90;;;;;;6121761;23;20014;-82
2021/07/27 12:49:31;;;;;;;15.55;12.50;;;27.00;99.90;;;;;;6122124;23;20033;-82
2021/07/27 12:51:57;;;;;;;15.75;11.20;;;26.60;99.90;;;;;;6097503;23;20033;-83
2021/07/27 12:54:23;;;;;;;14.02;10.57;;;26.50;99.90;;;;;;6122019;23;20018;-81
2021/07/27 12:56:49;;;;;;;14.25;11.90;;;26.50;99.90;;;;;;6133445;23;20018;-81
2021/07/27 12:59:14;;;;;;;17.27;12.30;;;26.30;99.90;;;;;;6126529;23;20092;-80